createdAt,value
2024-03-09T00:04:50.414Z,13.25
2024-03-09T00:09:56.490Z,16.50
2024-03-09T00:15:02.297Z,13.50
2024-03-09T00:20:09.837Z,12.25
2024-03-09T00:25:15.559Z,19.25
2024-03-09T00:30:21.920Z,14.00
2024-03-09T00:35:33.377Z,15.00
2024-03-09T00:40:39.105Z,15.75
2024-03-09T00:45:44.598Z,14.75
2024-03-09T00:50:50.221Z,16.25
2024-03-09T00:55:56.488Z,16.75
2024-03-09T01:01:02.757Z,15.00
2024-03-09T01:06:08.376Z,16.50
2024-03-09T01:11:14.354Z,21.50
2024-03-09T01:16:19.673Z,17.75
2024-03-09T01:21:25.549Z,16.00
2024-03-09T01:26:31.079Z,19.00
2024-03-09T01:31:36.890Z,23.50
2024-03-09T01:36:42.167Z,23.50
2024-03-09T01:41:48.280Z,20.25
2024-03-09T01:46:54.526Z,18.75
2024-03-09T01:51:59.977Z,18.75
2024-03-09T01:57:06.806Z,20.25
2024-03-09T02:02:13.315Z,20.50
2024-03-09T02:07:19.680Z,24.50
2024-03-09T02:12:27.967Z,25.75
2024-03-09T02:17:39.072Z,27.25
2024-03-09T02:22:44.447Z,22.75
2024-03-09T02:27:50.760Z,23.25
2024-03-09T02:32:57.020Z,20.75
2024-03-09T02:38:02.789Z,26.00
2024-03-09T02:43:14.483Z,27.75
2024-03-09T02:48:20.221Z,24.75
2024-03-09T02:53:25.673Z,25.00
2024-03-09T02:58:31.516Z,23.00
2024-03-09T03:03:50.299Z,25.00
2024-03-09T03:08:59.148Z,23.50
2024-03-09T03:14:07.165Z,23.25
2024-03-09T03:19:12.951Z,24.50
2024-03-09T03:24:18.732Z,20.50
2024-03-09T03:29:24.657Z,23.00
2024-03-09T03:34:30.574Z,21.00
2024-03-09T03:39:36.841Z,24.75
2024-03-09T03:44:46.172Z,22.50
2024-03-09T03:49:52.020Z,24.25
2024-03-09T03:54:58.506Z,23.00
2024-03-09T04:00:04.150Z,28.75
2024-03-09T04:05:11.519Z,22.50
2024-03-09T04:10:19.398Z,22.50
2024-03-09T04:15:25.319Z,21.00
2024-03-09T04:20:33.825Z,21.00
2024-03-09T04:25:44.993Z,21.50
2024-03-09T04:30:51.222Z,24.25
2024-03-09T04:35:57.043Z,22.25
2024-03-09T04:41:02.982Z,23.25
2024-03-09T04:46:08.925Z,23.25
2024-03-09T04:51:16.365Z,26.25
2024-03-09T04:56:22.936Z,19.25
2024-03-09T05:01:31.141Z,18.50
2024-03-09T05:06:42.939Z,23.75
2024-03-09T05:11:49.282Z,20.00
2024-03-09T05:16:55.237Z,22.50
2024-03-09T05:22:00.981Z,21.25
2024-03-09T05:27:07.021Z,18.25
2024-03-09T05:32:13.799Z,23.75
2024-03-09T05:37:21.378Z,20.25
2024-03-09T05:42:27.380Z,22.75
2024-03-09T05:47:33.113Z,20.00
2024-03-09T05:52:38.663Z,18.50
2024-03-09T05:58:09.001Z,19.50
2024-03-09T06:03:14.884Z,19.25
2024-03-09T06:08:20.628Z,24.50
2024-03-09T06:13:25.747Z,21.00
2024-03-09T06:18:33.308Z,18.50
2024-03-09T06:23:40.137Z,17.75
2024-03-09T06:28:48.185Z,19.50
2024-03-09T06:33:55.303Z,20.00
2024-03-09T06:39:01.207Z,22.25
2024-03-09T06:44:12.134Z,17.25
2024-03-09T06:49:17.843Z,20.75
2024-03-09T06:54:23.998Z,21.75
2024-03-09T06:59:29.738Z,18.00
2024-03-09T07:04:35.097Z,17.50
2024-03-09T07:09:40.740Z,19.75
2024-03-09T07:14:48.844Z,19.00
2024-03-09T07:19:55.990Z,18.50
2024-03-09T07:25:01.740Z,19.00
2024-03-09T07:30:11.410Z,20.00
2024-03-09T07:35:19.620Z,17.75
2024-03-09T07:40:27.159Z,20.00
2024-03-09T07:45:33.754Z,20.25
2024-03-09T07:50:39.491Z,18.75
2024-03-09T07:55:45.573Z,20.25
2024-03-09T08:00:52.266Z,19.75
2024-03-09T08:05:58.975Z,21.25
2024-03-09T08:11:08.065Z,18.25
2024-03-09T08:16:13.981Z,23.25
2024-03-09T08:21:19.894Z,21.75
2024-03-09T08:26:28.213Z,17.00
2024-03-09T08:31:34.557Z,19.00
2024-03-09T08:36:40.366Z,22.00
2024-03-09T08:41:46.737Z,18.75
2024-03-09T08:46:53.269Z,19.00
2024-03-09T08:51:59.254Z,21.00
2024-03-09T08:57:06.581Z,18.25
2024-03-09T09:02:13.287Z,19.00
2024-03-09T09:07:20.186Z,21.00
2024-03-09T09:12:26.101Z,19.75
2024-03-09T09:17:32.519Z,21.25
2024-03-09T09:22:40.508Z,20.50
2024-03-09T09:27:49.669Z,19.25
2024-03-09T09:32:56.249Z,19.00
2024-03-09T09:38:03.316Z,18.75
2024-03-09T09:43:11.233Z,22.50
2024-03-09T09:48:20.364Z,21.75
2024-03-09T09:53:27.393Z,18.75
2024-03-09T09:58:33.503Z,17.75
2024-03-09T10:03:39.466Z,19.25
2024-03-09T10:08:55.981Z,18.25
2024-03-09T10:14:04.890Z,26.50
2024-03-09T10:19:11.087Z,22.25
2024-03-09T10:24:19.033Z,24.00
2024-03-09T10:29:24.999Z,20.00
2024-03-09T10:34:33.219Z,21.25
2024-03-09T10:39:39.104Z,24.00
2024-03-09T10:44:46.213Z,27.75
2024-03-09T10:49:54.478Z,27.25
2024-03-09T10:55:08.043Z,27.50
2024-03-09T11:00:15.725Z,28.00
2024-03-09T11:05:26.495Z,27.75
2024-03-09T11:10:33.662Z,29.00
2024-03-09T11:15:40.539Z,33.50
2024-03-09T11:21:02.431Z,31.50
2024-03-09T11:26:10.772Z,31.00
2024-03-09T11:31:19.697Z,33.25
2024-03-09T11:36:43.956Z,29.75
2024-03-09T11:41:51.620Z,33.00
2024-03-09T11:47:00.496Z,37.00
2024-03-09T11:52:10.684Z,33.50
2024-03-09T11:57:17.486Z,35.25
2024-03-09T12:02:26.673Z,33.75
2024-03-09T12:07:32.630Z,34.50
2024-03-09T12:12:40.695Z,33.50
2024-03-09T12:17:48.620Z,34.50
2024-03-09T12:22:55.834Z,38.75
2024-03-09T12:28:03.648Z,36.25
2024-03-09T12:33:11.861Z,36.75
2024-03-09T12:38:18.474Z,38.25
2024-03-09T12:43:26.909Z,36.25
2024-03-09T12:48:34.091Z,39.25
2024-03-09T12:53:40.092Z,37.25
2024-03-09T12:58:49.183Z,35.75
2024-03-09T13:04:01.398Z,35.75
2024-03-09T13:09:08.182Z,34.75
2024-03-09T13:14:15.930Z,35.75
2024-03-09T13:19:22.312Z,34.00
2024-03-09T13:24:28.607Z,37.00
2024-03-09T13:29:34.859Z,33.50
2024-03-09T13:34:41.907Z,37.00
2024-03-09T13:39:48.938Z,36.25
2024-03-09T13:45:00.246Z,37.25
2024-03-09T13:50:05.201Z,33.25
2024-03-09T13:55:20.106Z,36.25
2024-03-09T14:00:31.226Z,34.25
2024-03-09T14:05:39.245Z,33.75
2024-03-09T14:10:45.900Z,34.75
2024-03-09T14:15:51.944Z,34.00
2024-03-09T14:20:58.332Z,33.25
2024-03-09T14:26:04.212Z,36.75
2024-03-09T14:31:18.024Z,35.75
2024-03-09T14:36:25.229Z,37.50
2024-03-09T14:41:31.719Z,35.00
2024-03-09T14:46:39.495Z,36.00
2024-03-09T14:51:45.201Z,37.50
2024-03-09T14:56:53.324Z,36.25
2024-03-09T15:02:00.613Z,38.00
2024-03-09T15:07:09.095Z,37.50
2024-03-09T15:12:15.156Z,36.00
2024-03-09T15:17:21.672Z,37.00
2024-03-09T15:22:30.970Z,36.75
2024-03-09T15:27:36.974Z,38.50
2024-03-09T15:32:45.894Z,38.00
2024-03-09T15:37:52.631Z,37.00
2024-03-09T15:43:00.235Z,37.25
2024-03-09T15:48:15.938Z,34.75
2024-03-09T15:53:21.458Z,37.50
2024-03-09T15:58:27.698Z,39.75
2024-03-09T16:03:34.432Z,35.25
2024-03-09T16:08:42.617Z,39.00
2024-03-09T16:13:52.657Z,36.75
2024-03-09T16:19:01.952Z,40.00
2024-03-09T16:24:10.070Z,38.75
2024-03-09T16:29:15.493Z,35.50
2024-03-09T16:34:22.660Z,38.75
2024-03-09T16:39:29.337Z,40.50
2024-03-09T16:44:35.751Z,39.25
2024-03-09T16:49:44.040Z,40.00
2024-03-09T16:54:51.381Z,42.50
2024-03-09T16:59:57.238Z,35.50
2024-03-09T17:05:03.258Z,39.50
2024-03-09T17:10:11.108Z,40.50
2024-03-09T17:15:22.152Z,39.50
2024-03-09T17:20:29.972Z,38.00
2024-03-09T17:25:37.771Z,37.00
2024-03-09T17:30:44.166Z,36.75
2024-03-09T17:35:49.904Z,38.25
2024-03-09T17:40:56.298Z,38.75
2024-03-09T17:46:02.650Z,38.25
2024-03-09T17:51:14.421Z,38.00
2024-03-09T17:56:19.480Z,38.75
2024-03-09T18:01:25.392Z,37.75
2024-03-09T18:06:32.459Z,39.00
2024-03-09T18:11:38.711Z,36.50
2024-03-09T18:16:44.966Z,39.50
2024-03-09T18:21:50.834Z,38.75
2024-03-09T18:26:56.953Z,39.00
2024-03-09T18:32:02.561Z,42.25
2024-03-09T18:37:10.015Z,33.75
2024-03-09T18:42:16.019Z,37.25
2024-03-09T18:47:21.611Z,40.25
2024-03-09T18:52:27.675Z,39.25
2024-03-09T18:57:33.526Z,37.00
2024-03-09T19:02:38.814Z,39.25
2024-03-09T19:07:45.220Z,37.75
2024-03-09T19:12:50.767Z,40.25
2024-03-09T19:17:57.633Z,41.50
2024-03-09T19:23:04.377Z,40.00
2024-03-09T19:28:10.702Z,40.75
2024-03-09T19:33:16.633Z,39.75
2024-03-09T19:38:22.103Z,39.75
2024-03-09T19:43:28.010Z,37.75
2024-03-09T19:48:34.214Z,38.25
2024-03-09T19:53:40.648Z,38.25
2024-03-09T19:58:48.145Z,38.50
2024-03-09T20:03:54.045Z,40.00
2024-03-09T20:09:02.119Z,38.25
2024-03-09T20:14:07.908Z,38.25
2024-03-09T20:19:13.629Z,37.00
2024-03-09T20:24:19.844Z,41.00
2024-03-09T20:29:25.499Z,41.50
2024-03-09T20:34:30.794Z,38.50
2024-03-09T20:39:36.244Z,40.25
2024-03-09T20:44:42.100Z,40.75
2024-03-09T20:49:48.113Z,39.50
2024-03-09T20:54:53.959Z,40.50
2024-03-09T21:00:00.198Z,39.75
2024-03-09T21:05:06.601Z,41.50
2024-03-09T21:10:13.149Z,38.25
2024-03-09T21:15:19.652Z,41.25
2024-03-09T21:20:26.303Z,37.75
2024-03-09T21:25:33.284Z,41.50
2024-03-09T21:30:39.723Z,43.75
2024-03-09T21:35:45.435Z,43.50
2024-03-09T21:40:51.755Z,43.25
2024-03-09T21:45:57.620Z,39.00
2024-03-09T21:51:08.529Z,40.25
2024-03-09T21:56:14.773Z,41.00
2024-03-09T22:01:21.500Z,38.25
2024-03-09T22:06:27.338Z,39.25
2024-03-09T22:11:33.471Z,43.50
2024-03-09T22:16:40.250Z,44.00
2024-03-09T22:21:51.479Z,44.50
2024-03-09T22:26:58.424Z,43.25
2024-03-09T22:32:04.217Z,41.00
2024-03-09T22:37:10.476Z,41.00
2024-03-09T22:42:16.498Z,43.00
2024-03-09T22:47:21.788Z,39.25
2024-03-09T22:52:27.290Z,38.25
2024-03-09T22:57:33.589Z,34.75
2024-03-09T23:02:39.557Z,35.50
2024-03-09T23:07:45.875Z,37.00
2024-03-09T23:12:54.274Z,37.50
2024-03-09T23:17:59.715Z,38.25
2024-03-09T23:23:07.623Z,38.50
2024-03-09T23:28:13.387Z,36.75
2024-03-09T23:33:19.217Z,37.75
2024-03-09T23:38:25.456Z,37.75
2024-03-09T23:43:31.186Z,39.00
2024-03-09T23:48:37.185Z,39.25
2024-03-09T23:53:45.701Z,41.25
2024-03-09T23:58:51.856Z,39.00
